createdAt,value
2022-07-27T00:00:53.540Z,147331.72
2022-07-27T00:03:20.940Z,147314.63
2022-07-27T00:05:47.978Z,147315.88
2022-07-27T00:08:15.133Z,147334.19
2022-07-27T00:10:42.252Z,147373.25
2022-07-27T00:13:09.272Z,147340.28
2022-07-27T00:15:36.315Z,147309.75
2022-07-27T00:18:03.803Z,147307.34
2022-07-27T00:20:32.352Z,147202.31
2022-07-27T00:22:59.636Z,147307.34
2022-07-27T00:25:29.599Z,147292.69
2022-07-27T00:27:59.185Z,147297.56
2022-07-27T00:30:26.569Z,147306.09
2022-07-27T00:32:53.682Z,147297.56
2022-07-27T00:35:20.971Z,147273.13
2022-07-27T00:37:48.024Z,147265.84
2022-07-27T00:40:15.315Z,147256.06
2022-07-27T00:42:42.322Z,147263.38
2022-07-27T00:45:09.739Z,147291.44
2022-07-27T00:47:36.761Z,147311.00
2022-07-27T00:50:04.907Z,147287.78
2022-07-27T00:52:32.212Z,147163.25
2022-07-27T00:55:00.032Z,147243.81
2022-07-27T00:57:30.262Z,147185.22
2022-07-27T00:59:57.287Z,147229.19
2022-07-27T01:02:26.338Z,147176.69
2022-07-27T01:04:56.886Z,147197.44
2022-07-27T01:07:24.843Z,147186.44
2022-07-27T01:09:58.259Z,147143.75
2022-07-27T01:12:29.590Z,147206.00
2022-07-27T01:14:58.128Z,147232.81
2022-07-27T01:17:27.211Z,147225.50
2022-07-27T01:19:54.313Z,147109.59
2022-07-27T01:22:21.332Z,147191.31
2022-07-27T01:24:50.224Z,147194.97
2022-07-27T01:27:17.274Z,147207.19
2022-07-27T01:29:44.549Z,147216.97
2022-07-27T01:32:11.783Z,147219.41
2022-07-27T01:34:38.962Z,147221.84
2022-07-27T01:37:06.425Z,147215.75
2022-07-27T01:39:34.118Z,147208.41
2022-07-27T01:42:01.617Z,147226.72
2022-07-27T01:44:29.021Z,147227.91
2022-07-27T01:46:56.134Z,147204.72
2022-07-27T01:49:23.259Z,147248.75
2022-07-27T01:51:50.392Z,147204.72
2022-07-27T01:54:17.974Z,147216.97
2022-07-27T01:56:45.272Z,147216.97
2022-07-27T01:59:16.813Z,147194.97
2022-07-27T02:01:44.936Z,147206.00
2022-07-27T02:04:12.397Z,147202.31
2022-07-27T02:06:40.529Z,147177.88
2022-07-27T02:09:07.625Z,147148.63
2022-07-27T02:11:53.264Z,147151.06
2022-07-27T02:14:21.171Z,147177.88
2022-07-27T02:16:50.781Z,147153.50
2022-07-27T02:19:18.379Z,147158.38
2022-07-27T02:21:45.906Z,147136.41
2022-07-27T02:24:13.014Z,147104.66
2022-07-27T02:26:40.059Z,147120.56
2022-07-27T02:29:07.115Z,147075.41
2022-07-27T02:31:34.163Z,147062.00
2022-07-27T02:34:01.188Z,147051.03
2022-07-27T02:36:29.448Z,146991.25
2022-07-27T02:38:57.325Z,147020.50
2022-07-27T02:41:24.754Z,147043.69
2022-07-27T02:43:51.912Z,147022.97
2022-07-27T02:46:19.206Z,146944.88
2022-07-27T02:48:46.636Z,147041.28
2022-07-27T02:51:14.959Z,147024.19
2022-07-27T02:53:42.073Z,146990.00
2022-07-27T02:56:09.205Z,146950.97
2022-07-27T02:58:36.767Z,146982.69
2022-07-27T03:01:05.006Z,146994.94
2022-07-27T03:03:32.964Z,146977.78
2022-07-27T03:06:03.882Z,146948.50
2022-07-27T03:08:30.902Z,146958.28
2022-07-27T03:10:57.998Z,146955.84
2022-07-27T03:13:26.495Z,146890.00
2022-07-27T03:15:53.618Z,146980.22
2022-07-27T03:18:21.571Z,146958.28
2022-07-27T03:20:48.686Z,146907.03
2022-07-27T03:23:17.921Z,146870.47
2022-07-27T03:25:45.125Z,146950.97
2022-07-27T03:28:12.126Z,146958.28
2022-07-27T03:30:39.240Z,146931.47
2022-07-27T03:33:06.490Z,146897.28
2022-07-27T03:35:33.692Z,146881.47
2022-07-27T03:38:00.799Z,146914.38
2022-07-27T03:40:29.520Z,146880.22
2022-07-27T03:42:57.024Z,146860.72
2022-07-27T03:45:24.571Z,146864.38
2022-07-27T03:47:51.788Z,146833.88
2022-07-27T03:50:19.678Z,146855.84
2022-07-27T03:52:46.728Z,146808.31
2022-07-27T03:55:13.865Z,146787.56
2022-07-27T03:57:41.014Z,146752.22
2022-07-27T04:00:12.448Z,146776.63
2022-07-27T04:02:42.751Z,146772.94
2022-07-27T04:05:10.534Z,146748.59
2022-07-27T04:07:37.811Z,146762.00
2022-07-27T04:10:05.720Z,146781.50
2022-07-27T04:12:36.992Z,146752.22
2022-07-27T04:15:05.821Z,146772.94
2022-07-27T04:17:55.570Z,146755.88
2022-07-27T04:20:19.998Z,146760.75
2022-07-27T04:22:47.078Z,146762.00
2022-07-27T04:25:14.260Z,146772.94
2022-07-27T04:27:41.334Z,146764.41
2022-07-27T04:30:09.829Z,146783.91
2022-07-27T04:32:37.373Z,146788.78
2022-07-27T04:35:05.558Z,146804.66
2022-07-27T04:37:33.263Z,146759.53
2022-07-27T04:40:00.968Z,146841.22
2022-07-27T04:42:29.722Z,146813.19
2022-07-27T04:44:57.138Z,146902.16
2022-07-27T04:47:24.199Z,146913.16
2022-07-27T04:49:51.293Z,146855.84
2022-07-27T04:52:18.545Z,146930.22
2022-07-27T04:54:46.097Z,146987.59
2022-07-27T04:57:13.162Z,147048.56
2022-07-27T04:59:40.247Z,147085.16
2022-07-27T05:02:07.312Z,147113.22
2022-07-27T05:04:35.546Z,147029.06
2022-07-27T05:07:02.912Z,147042.47
2022-07-27T05:09:29.937Z,147005.88
2022-07-27T05:11:56.976Z,147085.16
2022-07-27T05:14:24.047Z,147024.19
2022-07-27T05:16:51.168Z,147033.94
2022-07-27T05:19:18.313Z,147011.97
2022-07-27T05:21:45.437Z,147077.88
2022-07-27T05:24:12.462Z,147060.78
2022-07-27T05:26:39.587Z,147054.69
2022-07-27T05:29:06.753Z,146980.22
2022-07-27T05:31:33.905Z,147055.91
2022-07-27T05:34:01.018Z,146947.28
2022-07-27T05:36:28.055Z,146966.78
2022-07-27T05:38:55.261Z,146937.53
2022-07-27T05:41:26.721Z,146960.72
2022-07-27T05:43:55.056Z,146970.47
2022-07-27T05:46:22.707Z,146919.25
2022-07-27T05:48:50.057Z,146924.13
2022-07-27T05:51:17.320Z,146970.47
2022-07-27T05:53:44.574Z,146980.22
2022-07-27T05:56:11.644Z,146958.28
2022-07-27T05:58:38.706Z,146981.47
2022-07-27T06:01:05.778Z,146953.38
2022-07-27T06:03:33.004Z,146953.38
2022-07-27T06:06:19.219Z,147004.69
2022-07-27T06:08:46.264Z,147068.06
2022-07-27T06:11:14.416Z,147073.00
2022-07-27T06:13:41.968Z,147081.50
2022-07-27T06:16:10.595Z,147116.88
2022-07-27T06:18:37.922Z,147120.56
2022-07-27T06:21:05.561Z,147192.56
2022-07-27T06:23:32.640Z,147194.97
2022-07-27T06:25:59.940Z,147269.47
2022-07-27T06:28:26.989Z,147243.81
2022-07-27T06:30:54.043Z,147224.28
2022-07-27T06:33:27.674Z,147260.97
2022-07-27T06:35:57.506Z,147215.75
2022-07-27T06:38:27.755Z,147210.88
2022-07-27T06:40:56.166Z,147301.19
2022-07-27T06:43:26.817Z,147348.84
2022-07-27T06:45:54.687Z,147275.59
2022-07-27T06:48:22.405Z,147302.47
2022-07-27T06:50:50.725Z,147324.41
2022-07-27T06:53:21.175Z,147413.53
2022-07-27T06:55:49.672Z,147380.59
2022-07-27T06:58:17.622Z,147356.13
2022-07-27T07:00:45.034Z,147361.03
2022-07-27T07:03:12.268Z,147378.13
2022-07-27T07:05:45.270Z,147400.09
2022-07-27T07:08:14.442Z,147373.25
2022-07-27T07:10:42.976Z,147383.00
2022-07-27T07:13:11.146Z,147414.75
2022-07-27T07:15:40.765Z,147387.88
2022-07-27T07:18:08.976Z,147341.50
2022-07-27T07:20:36.923Z,147475.84
2022-07-27T07:23:04.455Z,147532.06
2022-07-27T07:25:32.595Z,147533.25
2022-07-27T07:28:00.223Z,147478.25
2022-07-27T07:30:28.341Z,147607.75
2022-07-27T07:32:56.628Z,147623.66
2022-07-27T07:35:24.167Z,147552.78
2022-07-27T07:37:51.338Z,147602.88
2022-07-27T07:43:07.245Z,147632.22
2022-07-27T07:45:38.017Z,147742.25
2022-07-27T07:48:14.217Z,147802.13
2022-07-27T07:50:41.222Z,147847.38
2022-07-27T07:53:08.251Z,147870.59
2022-07-27T07:55:35.278Z,147761.78
2022-07-27T07:58:02.354Z,147791.09
2022-07-27T08:00:30.675Z,147754.44
2022-07-27T08:02:58.251Z,147698.19
2022-07-27T08:05:26.433Z,147569.91
2022-07-27T08:07:54.040Z,147534.47
2022-07-27T08:10:22.296Z,147387.88
2022-07-27T08:12:52.046Z,147469.69
2022-07-27T08:15:19.566Z,147448.97
2022-07-27T08:17:46.758Z,147497.84
2022-07-27T08:20:15.250Z,147656.66
2022-07-27T08:22:42.950Z,147739.78
2022-07-27T08:25:12.855Z,147777.66
2022-07-27T08:27:40.830Z,147891.34
2022-07-27T08:30:10.481Z,147843.69
2022-07-27T08:32:52.980Z,147847.38
2022-07-27T08:35:20.671Z,147637.13
2022-07-27T08:37:48.029Z,147622.47
2022-07-27T08:43:05.269Z,147635.84
2022-07-27T08:45:33.446Z,147662.75
2022-07-27T08:48:01.231Z,147791.09
2022-07-27T08:50:30.282Z,147901.13
2022-07-27T08:53:09.733Z,147800.88
2022-07-27T08:55:44.882Z,147906.00
2022-07-27T08:58:13.614Z,147930.50
2022-07-27T09:00:43.639Z,148016.09
2022-07-27T09:03:18.483Z,147937.84
2022-07-27T09:05:55.325Z,147896.25
2022-07-27T09:08:25.722Z,147835.13
2022-07-27T09:10:58.020Z,147710.44
2022-07-27T09:13:31.633Z,147720.25
2022-07-27T09:16:21.058Z,147742.25
2022-07-27T09:18:57.947Z,147954.97
2022-07-27T09:21:25.011Z,147984.31
2022-07-27T09:23:54.262Z,148102.94
2022-07-27T09:26:34.783Z,148182.53
2022-07-27T09:29:11.217Z,148282.84
2022-07-27T09:31:42.690Z,148285.31
2022-07-27T09:34:10.833Z,148292.66
2022-07-27T09:36:56.457Z,148131.06
2022-07-27T09:39:25.500Z,148024.69
2022-07-27T09:42:00.049Z,148074.81
2022-07-27T09:44:44.376Z,148117.66
2022-07-27T09:47:27.601Z,147974.53
2022-07-27T09:50:18.978Z,148013.69
2022-07-27T09:52:47.079Z,147961.09
2022-07-27T09:55:14.381Z,148109.09
2022-07-27T09:58:15.563Z,148194.75
2022-07-27T10:00:56.113Z,148191.13
2022-07-27T10:03:23.297Z,148241.22
2022-07-27T10:05:50.444Z,148143.31
2022-07-27T10:08:18.270Z,148197.22
2022-07-27T10:10:45.300Z,148280.41
2022-07-27T10:13:12.331Z,148318.34
2022-07-27T10:15:42.701Z,148091.97
2022-07-27T10:18:19.287Z,147913.38
2022-07-27T10:20:47.763Z,147964.75
2022-07-27T10:23:28.808Z,147996.56
2022-07-27T10:26:14.880Z,148035.72
2022-07-27T10:29:03.082Z,148057.69
2022-07-27T10:31:33.154Z,148023.47
2022-07-27T10:34:02.477Z,148140.91
2022-07-27T10:36:29.439Z,148173.97
2022-07-27T10:39:02.690Z,148165.41
2022-07-27T10:41:32.779Z,148237.59
2022-07-27T10:44:17.701Z,148226.56
2022-07-27T10:46:50.644Z,148172.75
2022-07-27T10:49:18.090Z,148010.00
2022-07-27T10:51:45.235Z,148104.19
2022-07-27T10:54:29.409Z,148257.16
2022-07-27T10:56:59.335Z,148324.50
2022-07-27T11:00:07.605Z,148180.06
2022-07-27T11:02:42.577Z,148241.22
2022-07-27T11:05:42.634Z,148214.34
2022-07-27T11:08:36.046Z,148143.31
2022-07-27T11:10:48.433Z,148162.94
2022-07-27T11:13:20.319Z,148277.94
2022-07-27T11:15:59.823Z,148287.78
2022-07-27T11:18:34.310Z,148285.31
2022-07-27T11:21:26.721Z,148202.09
2022-07-27T11:24:04.010Z,148052.78
2022-07-27T11:26:38.748Z,148006.34
2022-07-27T11:29:11.130Z,148126.19
2022-07-27T11:31:54.939Z,148227.81
2022-07-27T11:34:31.707Z,148275.53
2022-07-27T11:37:02.046Z,148351.41
2022-07-27T11:42:21.286Z,148375.94
2022-07-27T11:44:49.402Z,148444.50
2022-07-27T11:47:20.446Z,148389.41
2022-07-27T11:49:47.529Z,148415.09
2022-07-27T11:52:17.519Z,148248.59
2022-07-27T11:54:51.433Z,148194.75
2022-07-27T11:57:22.659Z,148148.25
2022-07-27T11:59:49.784Z,148187.44
2022-07-27T12:02:23.033Z,148091.97
2022-07-27T12:04:51.744Z,148140.91
2022-07-27T12:07:29.728Z,148314.66
2022-07-27T12:09:59.116Z,148421.22
2022-07-27T12:12:28.886Z,148395.50
2022-07-27T12:15:44.537Z,148248.59
2022-07-27T12:18:06.771Z,148331.81
2022-07-27T12:20:35.695Z,148378.34
2022-07-27T12:23:08.076Z,148415.09
2022-07-27T12:25:36.204Z,148491.00
2022-07-27T12:28:17.757Z,148522.84
2022-07-27T12:30:48.968Z,148522.84
2022-07-27T12:33:37.622Z,148554.72
2022-07-27T12:36:07.072Z,148449.38
2022-07-27T12:38:45.607Z,148542.47
2022-07-27T12:41:29.640Z,148547.38
2022-07-27T12:44:17.883Z,148506.91
2022-07-27T12:47:30.495Z,148334.28
2022-07-27T12:50:03.072Z,148213.09
2022-07-27T12:52:30.498Z,148353.91
2022-07-27T12:54:57.557Z,148429.75
2022-07-27T12:57:54.091Z,148623.31
2022-07-27T13:00:15.883Z,148625.75
2022-07-27T13:02:43.897Z,148628.22
2022-07-27T13:05:13.583Z,148482.44
2022-07-27T13:07:47.637Z,148503.22
2022-07-27T13:10:18.334Z,148312.22
2022-07-27T13:12:47.103Z,148380.81
2022-07-27T13:15:15.414Z,148415.09
2022-07-27T13:17:43.546Z,148319.56
2022-07-27T13:20:12.408Z,148500.78
2022-07-27T13:22:40.863Z,148504.47
2022-07-27T13:25:16.098Z,148557.16
2022-07-27T13:27:45.877Z,148555.94
2022-07-27T13:30:14.923Z,148635.53
2022-07-27T13:32:42.523Z,148606.16
2022-07-27T13:35:12.408Z,148428.56
2022-07-27T13:37:40.703Z,148413.88
2022-07-27T13:40:09.665Z,148395.50
2022-07-27T13:42:36.738Z,148347.78
2022-07-27T13:45:10.036Z,148231.44
2022-07-27T13:47:38.931Z,148231.44
2022-07-27T13:50:13.296Z,148304.88
2022-07-27T13:52:46.192Z,148422.44
2022-07-27T13:55:15.187Z,148513.06
2022-07-27T13:57:43.171Z,148540.00
2022-07-27T14:00:10.860Z,148615.94
2022-07-27T14:02:38.015Z,148755.63
2022-07-27T14:05:06.261Z,148629.41
2022-07-27T14:07:34.199Z,148608.59
2022-07-27T14:10:19.924Z,148641.69
2022-07-27T14:12:47.085Z,148505.69
2022-07-27T14:15:14.106Z,148593.91
2022-07-27T14:17:41.560Z,148491.00
2022-07-27T14:20:09.513Z,148432.22
2022-07-27T14:22:36.524Z,148400.41
2022-07-27T14:25:03.971Z,148337.91
2022-07-27T14:27:33.591Z,148326.91
2022-07-27T14:30:06.779Z,148270.63
2022-07-27T14:32:34.828Z,148269.41
2022-07-27T14:35:02.626Z,148451.81
2022-07-27T14:37:29.655Z,148633.09
2022-07-27T14:39:56.722Z,148639.22
2022-07-27T14:42:25.002Z,148683.31
2022-07-27T14:44:52.643Z,148721.28
2022-07-27T14:47:19.975Z,148657.59
2022-07-27T14:49:47.130Z,148823.03
2022-07-27T14:52:14.376Z,148940.75
2022-07-27T14:54:42.960Z,148851.19
2022-07-27T14:57:10.179Z,148813.22
2022-07-27T14:59:37.377Z,148858.56
2022-07-27T15:02:05.588Z,148880.66
2022-07-27T15:04:33.089Z,148799.75
2022-07-27T15:07:00.878Z,148520.38
2022-07-27T15:09:30.345Z,148427.34
2022-07-27T15:11:58.187Z,148402.88
2022-07-27T15:14:25.791Z,148552.25
2022-07-27T15:16:54.790Z,148603.69
2022-07-27T15:19:22.356Z,148413.88
2022-07-27T15:21:50.172Z,148459.16
2022-07-27T15:24:17.199Z,148537.53
2022-07-27T15:26:44.207Z,148473.84
2022-07-27T15:29:14.786Z,148401.63
2022-07-27T15:31:43.240Z,148427.34
2022-07-27T15:34:10.500Z,148662.47
2022-07-27T15:36:43.838Z,148593.91
2022-07-27T15:39:13.927Z,148667.38
2022-07-27T15:41:41.289Z,148787.47
2022-07-27T15:44:08.348Z,148910.09
2022-07-27T15:46:35.500Z,148988.53
2022-07-27T15:49:02.752Z,148864.69
2022-07-27T15:51:30.049Z,148701.72
2022-07-27T15:53:57.382Z,148641.69
2022-07-27T15:56:24.907Z,148531.41
2022-07-27T15:58:52.459Z,148554.72
2022-07-27T16:01:21.234Z,148438.34
2022-07-27T16:03:49.733Z,148547.38
2022-07-27T16:06:20.046Z,148477.53
2022-07-27T16:08:47.505Z,148442.03
2022-07-27T16:11:14.610Z,148466.50
2022-07-27T16:13:42.063Z,148427.34
2022-07-27T16:16:27.666Z,148591.47
2022-07-27T16:18:59.974Z,148693.13
2022-07-27T16:21:54.053Z,148633.09
2022-07-27T16:24:24.361Z,148798.53
2022-07-27T16:26:51.875Z,148981.16
2022-07-27T16:29:19.360Z,149068.19
2022-07-27T16:31:46.666Z,149027.78
2022-07-27T16:34:13.725Z,148914.97
2022-07-27T16:36:40.863Z,148939.47
2022-07-27T16:39:08.064Z,149221.56
2022-07-27T16:41:35.083Z,149383.50
2022-07-27T16:44:02.111Z,149609.41
2022-07-27T16:46:29.217Z,149792.41
2022-07-27T16:48:56.309Z,149952.09
2022-07-27T16:51:23.374Z,149901.72
2022-07-27T16:53:50.491Z,150086.06
2022-07-27T16:56:17.975Z,150140.16
2022-07-27T16:58:45.125Z,150066.41
2022-07-27T17:01:22.045Z,149856.28
2022-07-27T17:03:54.223Z,149958.28
2022-07-27T17:06:21.554Z,150213.94
2022-07-27T17:08:49.015Z,150186.88
2022-07-27T17:11:17.619Z,150234.84
2022-07-27T17:13:50.299Z,150505.41
2022-07-27T17:16:18.003Z,150718.25
2022-07-27T17:18:45.493Z,150452.50
2022-07-27T17:21:13.214Z,150022.16
2022-07-27T17:23:41.846Z,150022.16
2022-07-27T17:26:10.548Z,150059.06
2022-07-27T17:28:41.209Z,150136.44
2022-07-27T17:31:10.863Z,150130.31
2022-07-27T17:33:39.306Z,150378.72
2022-07-27T17:36:12.288Z,150517.72
2022-07-27T17:38:43.380Z,150430.34
2022-07-27T17:41:11.111Z,150218.84
2022-07-27T17:43:41.408Z,150151.22
2022-07-27T17:46:10.491Z,150098.38
2022-07-27T17:48:38.275Z,150047.97
2022-07-27T17:51:07.525Z,150022.16
2022-07-27T17:53:34.621Z,150022.16
2022-07-27T17:56:02.688Z,149847.69
2022-07-27T17:58:30.692Z,149631.53
2022-07-27T18:00:58.222Z,149263.31
2022-07-27T18:03:25.686Z,148940.75
2022-07-27T18:05:52.706Z,148661.28
2022-07-27T18:08:19.731Z,148525.25
2022-07-27T18:10:46.992Z,148378.34
2022-07-27T18:13:14.053Z,148379.63
2022-07-27T18:15:47.003Z,148350.22
2022-07-27T18:18:15.814Z,148395.50
2022-07-27T18:20:47.674Z,148324.50
2022-07-27T18:23:15.709Z,148273.06
2022-07-27T18:25:44.297Z,148262.06
2022-07-27T18:28:13.978Z,148266.94
2022-07-27T18:30:41.119Z,148209.47
2022-07-27T18:33:08.248Z,148209.47
2022-07-27T18:35:35.849Z,148210.69
2022-07-27T18:38:04.549Z,148162.94
2022-07-27T18:40:31.600Z,148096.84
2022-07-27T18:42:58.614Z,148062.63
2022-07-27T18:45:34.609Z,148122.56
2022-07-27T18:48:01.934Z,147992.88
2022-07-27T18:50:29.032Z,148007.59
2022-07-27T18:52:57.192Z,147979.41
2022-07-27T18:55:25.113Z,147950.09
2022-07-27T18:57:52.920Z,147897.50
2022-07-27T19:00:20.964Z,147920.72
2022-07-27T19:02:48.308Z,147857.16
2022-07-27T19:05:22.272Z,147841.22
2022-07-27T19:07:59.919Z,147842.47
2022-07-27T19:10:27.135Z,147831.44
2022-07-27T19:12:55.842Z,147761.78
2022-07-27T19:15:22.993Z,147808.22
2022-07-27T19:17:50.100Z,147798.47
2022-07-27T19:20:17.139Z,147776.44
2022-07-27T19:22:47.313Z,147756.91
2022-07-27T19:25:15.628Z,147749.56
2022-07-27T19:27:43.322Z,147649.31
2022-07-27T19:30:12.236Z,147696.97
2022-07-27T19:32:39.595Z,147630.97
2022-07-27T19:35:07.892Z,147644.41
2022-07-27T19:37:35.617Z,147610.22
2022-07-27T19:40:20.133Z,147561.34
2022-07-27T19:42:47.720Z,147497.84
2022-07-27T19:45:14.809Z,147485.59
2022-07-27T19:47:41.807Z,147492.94
2022-07-27T19:50:09.289Z,147512.53
2022-07-27T19:52:36.522Z,147475.84
2022-07-27T19:55:06.268Z,147412.34
2022-07-27T19:57:33.495Z,147418.44
2022-07-27T20:00:02.515Z,147412.34
2022-07-27T20:02:31.899Z,147415.97
2022-07-27T20:04:59.099Z,147289.03
2022-07-27T20:07:26.130Z,147373.25
2022-07-27T20:09:53.175Z,147339.06
2022-07-27T20:12:21.355Z,147384.25
2022-07-27T20:14:48.452Z,147309.75
2022-07-27T20:17:15.469Z,147326.84
2022-07-27T20:19:42.614Z,147291.44
2022-07-27T20:22:09.724Z,147268.25
2022-07-27T20:24:36.790Z,147243.81
2022-07-27T20:27:04.027Z,147267.03
2022-07-27T20:29:31.470Z,147225.50
2022-07-27T20:31:59.017Z,147136.41
2022-07-27T20:34:26.033Z,147202.31
2022-07-27T20:36:53.978Z,147165.72
2022-07-27T20:39:21.533Z,147147.41
2022-07-27T20:41:48.831Z,147114.47
2022-07-27T20:44:15.970Z,147116.88
2022-07-27T20:46:43.408Z,147094.91
2022-07-27T20:49:10.750Z,147101.06
2022-07-27T20:51:39.352Z,147077.88
2022-07-27T20:54:06.384Z,147036.41
2022-07-27T20:56:33.442Z,147022.97
2022-07-27T20:59:00.493Z,147063.19
2022-07-27T21:01:27.638Z,147043.69
2022-07-27T21:03:54.779Z,147044.91
2022-07-27T21:06:21.991Z,147029.06
2022-07-27T21:08:49.024Z,147010.78
2022-07-27T21:11:16.200Z,146999.81
2022-07-27T21:13:43.322Z,146991.25
2022-07-27T21:16:10.390Z,146972.91
2022-07-27T21:18:37.719Z,146950.97
2022-07-27T21:21:04.795Z,146941.22
2022-07-27T21:24:11.900Z,146963.16
2022-07-27T21:26:39.549Z,146946.09
2022-07-27T21:29:06.932Z,146836.34
2022-07-27T21:31:35.714Z,146814.41
2022-07-27T21:34:02.786Z,146882.66
2022-07-27T21:36:29.903Z,146863.19
2022-07-27T21:38:57.229Z,146833.88
2022-07-27T21:41:24.378Z,146827.81
2022-07-27T21:43:51.441Z,146826.59
2022-07-27T21:46:18.571Z,146816.84
2022-07-27T21:48:45.949Z,146820.47
2022-07-27T21:51:14.643Z,146804.66
2022-07-27T21:53:42.656Z,146794.91
2022-07-27T21:56:09.678Z,146780.28
2022-07-27T21:58:36.717Z,146765.63
2022-07-27T22:01:03.997Z,146712.03
2022-07-27T22:03:31.123Z,146716.91
2022-07-27T22:05:58.205Z,146696.09
2022-07-27T22:08:26.427Z,146737.59
2022-07-27T22:10:53.860Z,146681.50
2022-07-27T22:13:20.916Z,146677.81
2022-07-27T22:15:50.892Z,146702.22
2022-07-27T22:18:18.151Z,146675.41
2022-07-27T22:20:45.215Z,146646.13
2022-07-27T22:23:12.231Z,146629.13
2022-07-27T22:25:39.626Z,146607.19
2022-07-27T22:28:06.821Z,146524.34
2022-07-27T22:30:33.978Z,146463.41
2022-07-27T22:33:01.404Z,146485.34
2022-07-27T22:35:28.510Z,146520.69
2022-07-27T22:37:55.541Z,146535.28
2022-07-27T22:40:22.828Z,146541.38
2022-07-27T22:42:49.844Z,146546.22
2022-07-27T22:45:17.602Z,146532.81
2022-07-27T22:47:44.691Z,146535.28
2022-07-27T22:50:18.181Z,146484.13
2022-07-27T22:52:45.803Z,146487.81
2022-07-27T22:55:12.827Z,146467.06
2022-07-27T22:57:39.833Z,146462.19
2022-07-27T23:00:08.920Z,146463.41
2022-07-27T23:02:36.074Z,146465.88
2022-07-27T23:05:03.679Z,146451.25
2022-07-27T23:07:31.197Z,146453.66
2022-07-27T23:09:58.266Z,146434.19
2022-07-27T23:12:25.293Z,146424.47
2022-07-27T23:14:52.401Z,146412.28
2022-07-27T23:17:19.438Z,146367.16
2022-07-27T23:19:46.420Z,146370.84
2022-07-27T23:22:13.518Z,146345.25
2022-07-27T23:24:44.320Z,146353.78
2022-07-27T23:27:12.152Z,146314.84
2022-07-27T23:29:39.249Z,146309.97
2022-07-27T23:32:08.244Z,146326.97
2022-07-27T23:34:36.347Z,146302.66
2022-07-27T23:37:03.410Z,146319.69
2022-07-27T23:39:30.504Z,146290.47
2022-07-27T23:41:57.512Z,146251.53
2022-07-27T23:44:24.502Z,146273.44
2022-07-27T23:46:51.599Z,146292.91
2022-07-27T23:49:19.178Z,146258.81
2022-07-27T23:51:46.242Z,146264.91
2022-07-27T23:54:13.720Z,146185.78
2022-07-27T23:56:40.969Z,146244.22
2022-07-27T23:59:08.013Z,146246.66
